sensor_id;sensor_type;location;lat;lon;timestamp;pressure;altitude;pressure_sealevel;temperature;humidity
71043;BME280;58696;52.134;5.500;2023-04-01T00:00:26;99199.97;;;9.39;99.98
71043;BME280;58696;52.134;5.500;2023-04-01T00:02:53;99204.06;;;9.40;99.76
71043;BME280;58696;52.134;5.500;2023-04-01T00:05:20;99197.97;;;9.41;100.00
71043;BME280;58696;52.134;5.500;2023-04-01T00:07:52;99202.28;;;9.40;100.00
71043;BME280;58696;52.134;5.500;2023-04-01T00:10:21;99203.09;;;9.41;100.00
71043;BME280;58696;52.134;5.500;2023-04-01T00:12:50;99199.72;;;9.40;100.00
71043;BME280;58696;52.134;5.500;2023-04-01T00:15:19;99200.53;;;9.41;99.98
71043;BME280;58696;52.134;5.500;2023-04-01T00:17:50;99205.44;;;9.42;100.00
71043;BME280;58696;52.134;5.500;2023-04-01T00:20:17;99205.66;;;9.41;99.98
71043;BME280;58696;52.134;5.500;2023-04-01T00:22:43;99209.78;;;9.42;100.00
71043;BME280;58696;52.134;5.500;2023-04-01T00:25:13;99209.78;;;9.42;100.00
71043;BME280;58696;52.134;5.500;2023-04-01T00:27:39;99214.69;;;9.43;100.00
71043;BME280;58696;52.134;5.500;2023-04-01T00:30:06;99208.78;;;9.43;100.00
71043;BME280;58696;52.134;5.500;2023-04-01T00:32:36;99211.34;;;9.43;100.00
71043;BME280;58696;52.134;5.500;2023-04-01T00:35:06;99204.66;;;9.42;100.00
71043;BME280;58696;52.134;5.500;2023-04-01T00:37:36;99217.50;;;9.42;99.94
71043;BME280;58696;52.134;5.500;2023-04-01T00:40:05;99207.22;;;9.42;100.00
71043;BME280;58696;52.134;5.500;2023-04-01T00:42:34;99219.28;;;9.41;100.00
71043;BME280;58696;52.134;5.500;2023-04-01T00:47:53;99211.00;;;9.39;100.00
71043;BME280;58696;52.134;5.500;2023-04-01T00:50:24;99212.78;;;9.39;100.00
71043;BME280;58696;52.134;5.500;2023-04-01T00:52:53;99217.13;;;9.38;100.00
71043;BME280;58696;52.134;5.500;2023-04-01T00:55:21;99216.34;;;9.38;100.00
71043;BME280;58696;52.134;5.500;2023-04-01T00:57:50;99214.56;;;9.38;100.00
71043;BME280;58696;52.134;5.500;2023-04-01T01:00:19;99222.47;;;9.37;100.00
71043;BME280;58696;52.134;5.500;2023-04-01T01:02:51;99230.16;;;9.37;100.00
71043;BME280;58696;52.134;5.500;2023-04-01T01:05:21;99226.22;;;9.34;100.00
71043;BME280;58696;52.134;5.500;2023-04-01T01:08:26;99234.13;;;9.33;100.00
71043;BME280;58696;52.134;5.500;2023-04-01T01:10:49;99238.72;;;9.31;100.00
71043;BME280;58696;52.134;5.500;2023-04-01T01:13:34;99232.03;;;9.30;100.00
71043;BME280;58696;52.134;5.500;2023-04-01T01:16:26;99233.78;;;9.29;100.00
71043;BME280;58696;52.134;5.500;2023-04-01T01:22:05;99235.56;;;9.29;100.00
71043;BME280;58696;52.134;5.500;2023-04-01T01:24:40;99234.00;;;9.28;100.00
71043;BME280;58696;52.134;5.500;2023-04-01T01:27:16;99244.47;;;9.26;100.00
71043;BME280;58696;52.134;5.500;2023-04-01T01:30:13;99234.44;;;9.25;100.00
71043;BME280;58696;52.134;5.500;2023-04-01T01:33:02;99236.19;;;9.24;99.95
71043;BME280;58696;52.134;5.500;2023-04-01T01:35:38;99238.97;;;9.22;100.00
71043;BME280;58696;52.134;5.500;2023-04-01T01:38:11;99243.31;;;9.22;100.00
71043;BME280;58696;52.134;5.500;2023-04-01T01:40:44;99243.53;;;9.20;100.00
71043;BME280;58696;52.134;5.500;2023-04-01T01:43:16;99236.84;;;9.19;100.00
71043;BME280;58696;52.134;5.500;2023-04-01T01:45:49;99247.28;;;9.18;100.00
71043;BME280;58696;52.134;5.500;2023-04-01T01:48:18;99243.38;;;9.15;100.00
71043;BME280;58696;52.134;5.500;2023-04-01T01:50:46;99252.84;;;9.15;100.00
71043;BME280;58696;52.134;5.500;2023-04-01T01:53:14;99243.59;;;9.14;99.92
71043;BME280;58696;52.134;5.500;2023-04-01T01:55:47;99256.59;;;9.12;100.00
71043;BME280;58696;52.134;5.500;2023-04-01T01:58:32;99252.69;;;9.10;100.00
71043;BME280;58696;52.134;5.500;2023-04-01T02:01:03;99251.13;;;9.09;100.00
71043;BME280;58696;52.134;5.500;2023-04-01T02:03:39;99256.44;;;9.07;100.00
71043;BME280;58696;52.134;5.500;2023-04-01T02:06:11;99249.75;;;9.06;100.00
71043;BME280;58696;52.134;5.500;2023-04-01T02:08:45;99258.44;;;9.05;100.00
71043;BME280;58696;52.134;5.500;2023-04-01T02:11:17;99258.84;;;9.02;100.00
71043;BME280;58696;52.134;5.500;2023-04-01T02:13:49;99258.28;;;9.00;100.00
71043;BME280;58696;52.134;5.500;2023-04-01T02:16:31;99256.16;;;8.97;100.00
71043;BME280;58696;52.134;5.500;2023-04-01T02:19:04;99261.47;;;8.95;100.00
71043;BME280;58696;52.134;5.500;2023-04-01T02:21:35;99259.13;;;8.94;100.00
71043;BME280;58696;52.134;5.500;2023-04-01T02:24:08;99259.91;;;8.94;99.97
71043;BME280;58696;52.134;5.500;2023-04-01T02:26:36;99260.13;;;8.93;100.00
71043;BME280;58696;52.134;5.500;2023-04-01T02:29:04;99263.88;;;8.90;100.00
71043;BME280;58696;52.134;5.500;2023-04-01T02:31:32;99264.88;;;8.89;100.00
71043;BME280;58696;52.134;5.500;2023-04-01T02:34:00;99261.53;;;8.89;99.96
71043;BME280;58696;52.134;5.500;2023-04-01T02:36:31;99264.31;;;8.87;100.00
71043;BME280;58696;52.134;5.500;2023-04-01T02:39:03;99267.66;;;8.88;99.99
71043;BME280;58696;52.134;5.500;2023-04-01T02:41:31;99264.50;;;8.86;100.00
71043;BME280;58696;52.134;5.500;2023-04-01T02:44:02;99267.28;;;8.84;99.91
71043;BME280;58696;52.134;5.500;2023-04-01T02:46:35;99269.84;;;8.84;99.98
71043;BME280;58696;52.134;5.500;2023-04-01T02:49:07;99268.28;;;8.83;100.00
71043;BME280;58696;52.134;5.500;2023-04-01T02:51:33;99273.63;;;8.82;99.97
71043;BME280;58696;52.134;5.500;2023-04-01T02:54:03;99274.63;;;8.81;100.00
71043;BME280;58696;52.134;5.500;2023-04-01T02:56:29;99274.63;;;8.81;100.00
71043;BME280;58696;52.134;5.500;2023-04-01T02:59:01;99283.28;;;8.80;100.00
71043;BME280;58696;52.134;5.500;2023-04-01T03:01:30;99280.94;;;8.78;100.00
71043;BME280;58696;52.134;5.500;2023-04-01T03:03:56;99280.16;;;8.78;100.00
71043;BME280;58696;52.134;5.500;2023-04-01T03:06:26;99276.03;;;8.77;100.00
71043;BME280;58696;52.134;5.500;2023-04-01T03:08:55;99284.50;;;8.77;100.00
71043;BME280;58696;52.134;5.500;2023-04-01T03:11:22;99280.38;;;8.76;100.00
71043;BME280;58696;52.134;5.500;2023-04-01T03:13:49;99282.16;;;8.76;100.00
71043;BME280;58696;52.134;5.500;2023-04-01T03:16:20;99285.69;;;8.75;100.00
71043;BME280;58696;52.134;5.500;2023-04-01T03:18:46;99288.25;;;8.75;100.00
71043;BME280;58696;52.134;5.500;2023-04-01T03:21:20;99287.69;;;8.73;100.00
71043;BME280;58696;52.134;5.500;2023-04-01T03:23:46;99296.13;;;8.73;100.00
71043;BME280;58696;52.134;5.500;2023-04-01T03:26:13;99296.34;;;8.72;100.00
71043;BME280;58696;52.134;5.500;2023-04-01T03:28:40;99297.91;;;8.73;100.00
71043;BME280;58696;52.134;5.500;2023-04-01T03:31:07;99296.34;;;8.72;100.00
71043;BME280;58696;52.134;5.500;2023-04-01T03:33:33;99299.69;;;8.72;100.00
71043;BME280;58696;52.134;5.500;2023-04-01T03:36:02;99304.81;;;8.72;100.00
71043;BME280;58696;52.134;5.500;2023-04-01T03:38:36;99315.06;;;8.72;100.00
71043;BME280;58696;52.134;5.500;2023-04-01T03:41:02;99303.81;;;8.73;100.00
71043;BME280;58696;52.134;5.500;2023-04-01T03:43:29;99305.59;;;8.73;100.00
71043;BME280;58696;52.134;5.500;2023-04-01T03:45:56;99320.75;;;8.74;100.00
71043;BME280;58696;52.134;5.500;2023-04-01T03:48:24;99316.41;;;8.75;100.00
71043;BME280;58696;52.134;5.500;2023-04-01T03:50:54;99314.84;;;8.74;100.00
71043;BME280;58696;52.134;5.500;2023-04-01T03:53:20;99316.41;;;8.75;100.00
71043;BME280;58696;52.134;5.500;2023-04-01T03:55:47;99318.00;;;8.76;100.00
71043;BME280;58696;52.134;5.500;2023-04-01T03:58:17;99327.25;;;8.77;100.00
71043;BME280;58696;52.134;5.500;2023-04-01T04:00:44;99332.16;;;8.78;100.00
71043;BME280;58696;52.134;5.500;2023-04-01T04:03:12;99330.59;;;8.77;100.00
71043;BME280;58696;52.134;5.500;2023-04-01T04:05:46;99330.38;;;8.79;100.00
71043;BME280;58696;52.134;5.500;2023-04-01T04:08:16;99333.94;;;8.78;100.00
71043;BME280;58696;52.134;5.500;2023-04-01T04:10:47;99333.72;;;8.79;100.00
71043;BME280;58696;52.134;5.500;2023-04-01T04:13:14;99348.91;;;8.81;100.00
71043;BME280;58696;52.134;5.500;2023-04-01T04:15:46;99353.03;;;8.82;100.00
71043;BME280;58696;52.134;5.500;2023-04-01T04:18:12;99345.34;;;8.82;100.00
71043;BME280;58696;52.134;5.500;2023-04-01T04:20:45;99352.81;;;8.83;100.00
71043;BME280;58696;52.134;5.500;2023-04-01T04:23:14;99354.59;;;8.83;100.00
71043;BME280;58696;52.134;5.500;2023-04-01T04:25:41;99353.59;;;8.84;100.00
71043;BME280;58696;52.134;5.500;2023-04-01T04:28:07;99359.50;;;8.84;100.00
71043;BME280;58696;52.134;5.500;2023-04-01T04:30:34;99365.41;;;8.85;100.00
71043;BME280;58696;52.134;5.500;2023-04-01T04:33:00;99366.19;;;8.85;100.00
71043;BME280;58696;52.134;5.500;2023-04-01T04:35:28;99365.22;;;8.86;100.00
71043;BME280;58696;52.134;5.500;2023-04-01T04:37:54;99370.34;;;8.86;100.00
71043;BME280;58696;52.134;5.500;2023-04-01T04:40:21;99374.66;;;8.86;100.00
71043;BME280;58696;52.134;5.500;2023-04-01T04:42:50;99383.94;;;8.87;100.00
71043;BME280;58696;52.134;5.500;2023-04-01T04:45:18;99388.06;;;8.88;100.00
71043;BME280;58696;52.134;5.500;2023-04-01T04:47:45;99387.28;;;8.87;100.00
71043;BME280;58696;52.134;5.500;2023-04-01T04:50:11;99395.53;;;8.89;100.00
71043;BME280;58696;52.134;5.500;2023-04-01T04:52:40;99401.44;;;8.90;100.00
71043;BME280;58696;52.134;5.500;2023-04-01T04:55:09;99397.88;;;8.91;100.00
71043;BME280;58696;52.134;5.500;2023-04-01T04:57:38;99407.97;;;8.92;100.00
71043;BME280;58696;52.134;5.500;2023-04-01T05:00:10;99409.72;;;8.92;100.00
71043;BME280;58696;52.134;5.500;2023-04-01T05:02:37;99411.47;;;8.91;100.00
71043;BME280;58696;52.134;5.500;2023-04-01T05:05:07;99413.88;;;8.93;100.00
71043;BME280;58696;52.134;5.500;2023-04-01T05:07:34;99415.63;;;8.92;100.00
71043;BME280;58696;52.134;5.500;2023-04-01T05:10:01;99424.69;;;8.95;100.00
71043;BME280;58696;52.134;5.500;2023-04-01T05:12:27;99431.59;;;8.94;100.00
71043;BME280;58696;52.134;5.500;2023-04-01T05:14:54;99434.94;;;8.95;100.00
71043;BME280;58696;52.134;5.500;2023-04-01T05:17:23;99444.97;;;8.96;100.00
71043;BME280;58696;52.134;5.500;2023-04-01T05:19:49;99442.22;;;8.98;100.00
71043;BME280;58696;52.134;5.500;2023-04-01T05:22:16;99444.56;;;9.00;100.00
71043;BME280;58696;52.134;5.500;2023-04-01T05:24:43;99450.25;;;9.02;100.00
71043;BME280;58696;52.134;5.500;2023-04-01T05:27:09;99446.53;;;9.04;100.00
71043;BME280;58696;52.134;5.500;2023-04-01T05:29:36;99449.66;;;9.06;100.00
71043;BME280;58696;52.134;5.500;2023-04-01T05:32:02;99449.25;;;9.09;100.00
71043;BME280;58696;52.134;5.500;2023-04-01T05:34:29;99454.16;;;9.11;100.00
71043;BME280;58696;52.134;5.500;2023-04-01T05:36:57;99463.22;;;9.13;100.00
71043;BME280;58696;52.134;5.500;2023-04-01T05:39:24;99458.09;;;9.13;100.00
71043;BME280;58696;52.134;5.500;2023-04-01T05:41:50;99468.16;;;9.15;100.00
71043;BME280;58696;52.134;5.500;2023-04-01T05:44:17;99470.50;;;9.16;100.00
71043;BME280;58696;52.134;5.500;2023-04-01T05:46:43;99483.69;;;9.20;100.00
71043;BME280;58696;52.134;5.500;2023-04-01T05:49:10;99477.19;;;9.17;100.00
71043;BME280;58696;52.134;5.500;2023-04-01T05:51:37;99483.69;;;9.20;100.00
71043;BME280;58696;52.134;5.500;2023-04-01T05:54:04;99486.25;;;9.20;100.00
71043;BME280;58696;52.134;5.500;2023-04-01T05:56:31;99490.38;;;9.21;100.00
71043;BME280;58696;52.134;5.500;2023-04-01T05:58:57;99493.94;;;9.20;100.00
71043;BME280;58696;52.134;5.500;2023-04-01T06:01:24;99494.72;;;9.20;100.00
71043;BME280;58696;52.134;5.500;2023-04-01T06:03:50;99488.81;;;9.20;100.00
71043;BME280;58696;52.134;5.500;2023-04-01T06:06:26;99502.41;;;9.20;100.00
71043;BME280;58696;52.134;5.500;2023-04-01T06:08:56;99504.97;;;9.20;100.00
71043;BME280;58696;52.134;5.500;2023-04-01T06:31:06;99535.09;;;9.32;100.00
71043;BME280;58696;52.134;5.500;2023-04-01T06:33:58;99538.66;;;9.31;100.00
71043;BME280;58696;52.134;5.500;2023-04-01T06:36:42;99541.22;;;9.31;100.00
71043;BME280;58696;52.134;5.500;2023-04-01T06:39:53;99547.91;;;9.32;100.00
71043;BME280;58696;52.134;5.500;2023-04-01T06:42:26;99555.19;;;9.35;100.00
71043;BME280;58696;52.134;5.500;2023-04-01T06:45:15;99554.22;;;9.36;100.00
71043;BME280;58696;52.134;5.500;2023-04-01T06:47:53;99560.91;;;9.37;100.00
71043;BME280;58696;52.134;5.500;2023-04-01T06:50:30;99562.47;;;9.38;100.00
71043;BME280;58696;52.134;5.500;2023-04-01T06:53:14;99568.78;;;9.42;100.00
71043;BME280;58696;52.134;5.500;2023-04-01T06:56:10;99573.69;;;9.43;100.00
71043;BME280;58696;52.134;5.500;2023-04-01T06:58:50;99577.81;;;9.44;100.00
71043;BME280;58696;52.134;5.500;2023-04-01T07:01:27;99582.53;;;9.47;100.00
71043;BME280;58696;52.134;5.500;2023-04-01T07:03:59;99582.53;;;9.47;100.00
71043;BME280;58696;52.134;5.500;2023-04-01T07:06:35;99592.38;;;9.51;100.00
71043;BME280;58696;52.134;5.500;2023-04-01T07:09:08;99596.94;;;9.48;100.00
71043;BME280;58696;52.134;5.500;2023-04-01T07:11:38;99598.50;;;9.49;100.00
71043;BME280;58696;52.134;5.500;2023-04-01T07:14:13;99600.84;;;9.51;100.00
71043;BME280;58696;52.134;5.500;2023-04-01T07:19:35;99614.50;;;9.52;100.00
71043;BME280;58696;52.134;5.500;2023-04-01T07:22:18;99616.47;;;9.49;100.00
71043;BME280;58696;52.134;5.500;2023-04-01T07:24:50;99623.94;;;9.51;100.00
71043;BME280;58696;52.134;5.500;2023-04-01T07:27:21;99626.50;;;9.51;100.00
71043;BME280;58696;52.134;5.500;2023-04-01T07:29:50;99635.38;;;9.55;100.00
71043;BME280;58696;52.134;5.500;2023-04-01T07:35:13;99647.19;;;9.63;100.00
71043;BME280;58696;52.134;5.500;2023-04-01T07:38:06;99652.31;;;9.63;100.00
71043;BME280;58696;52.134;5.500;2023-04-01T07:49:38;99659.75;;;9.71;100.00
71043;BME280;58696;52.134;5.500;2023-04-01T07:52:15;99668.47;;;9.70;100.00
71043;BME280;58696;52.134;5.500;2023-04-01T08:00:36;99685.97;;;9.80;100.00
71043;BME280;58696;52.134;5.500;2023-04-01T17:05:05;100490.41;;;9.41;96.15
71043;BME280;58696;52.134;5.500;2023-04-01T17:44:01;100582.09;;;9.03;95.46
71043;BME280;58696;52.134;5.500;2023-04-01T17:49:22;100607.09;;;9.01;95.73
71043;BME280;58696;52.134;5.500;2023-04-01T17:57:46;100615.75;;;9.00;95.61
71043;BME280;58696;52.134;5.500;2023-04-01T18:20:02;100671.69;;;8.81;95.19
71043;BME280;58696;52.134;5.500;2023-04-01T18:22:54;100683.06;;;8.79;95.30
71043;BME280;58696;52.134;5.500;2023-04-01T18:25:40;100685.16;;;8.75;95.55
71043;BME280;58696;52.134;5.500;2023-04-01T18:38:49;100720.31;;;8.66;95.64
71043;BME280;58696;52.134;5.500;2023-04-01T18:41:32;100726.41;;;8.65;95.79
71043;BME280;58696;52.134;5.500;2023-04-01T18:50:21;100741.81;;;8.57;95.78
71043;BME280;58696;52.134;5.500;2023-04-01T18:53:09;100760.91;;;8.55;95.46
71043;BME280;58696;52.134;5.500;2023-04-01T18:55:47;100763.47;;;8.55;95.40
71043;BME280;58696;52.134;5.500;2023-04-01T19:06:48;100782.22;;;8.47;95.69
71043;BME280;58696;52.134;5.500;2023-04-01T19:09:20;100784.78;;;8.47;95.48
71043;BME280;58696;52.134;5.500;2023-04-01T19:12:04;100799.53;;;8.45;95.30
71043;BME280;58696;52.134;5.500;2023-04-01T19:26:02;100825.50;;;8.34;94.25
71043;BME280;58696;52.134;5.500;2023-04-01T19:37:11;100850.66;;;8.22;93.75
71043;BME280;58696;52.134;5.500;2023-04-01T19:40:14;100857.88;;;8.18;93.16
71043;BME280;58696;52.134;5.500;2023-04-01T19:45:35;100875.31;;;8.15;93.16
71043;BME280;58696;52.134;5.500;2023-04-01T19:49:06;100871.16;;;8.14;93.21
71043;BME280;58696;52.134;5.500;2023-04-01T20:04:55;100912.16;;;7.98;94.76
71043;BME280;58696;52.134;5.500;2023-04-01T20:07:38;100923.53;;;7.95;94.92
71043;BME280;58696;52.134;5.500;2023-04-01T20:10:20;100930.56;;;7.93;94.94
71043;BME280;58696;52.134;5.500;2023-04-01T20:13:04;100935.34;;;7.88;95.39
71043;BME280;58696;52.134;5.500;2023-04-01T20:15:38;100932.00;;;7.87;95.70
71043;BME280;58696;52.134;5.500;2023-04-01T20:18:55;100940.66;;;7.78;96.05
71043;BME280;58696;52.134;5.500;2023-04-01T20:27:27;100961.59;;;7.65;95.29
71043;BME280;58696;52.134;5.500;2023-04-01T20:30:26;100972.78;;;7.64;95.47
71043;BME280;58696;52.134;5.500;2023-04-01T20:52:38;101032.72;;;7.46;93.39
71043;BME280;58696;52.134;5.500;2023-04-01T20:58:17;101040.69;;;7.43;92.67
71043;BME280;58696;52.134;5.500;2023-04-01T21:03:49;101047.53;;;7.34;93.17
71043;BME280;58696;52.134;5.500;2023-04-01T21:11:46;101065.91;;;7.29;93.62
71043;BME280;58696;52.134;5.500;2023-04-01T21:20:04;101076.41;;;7.26;94.13
71043;BME280;58696;52.134;5.500;2023-04-01T21:22:59;101092.06;;;7.23;94.47
71043;BME280;58696;52.134;5.500;2023-04-01T21:31:45;101103.94;;;7.06;94.66
71043;BME280;58696;52.134;5.500;2023-04-01T21:34:42;101114.00;;;7.00;94.28
71043;BME280;58696;52.134;5.500;2023-04-01T21:45:37;101144.47;;;6.93;94.39
71043;BME280;58696;52.134;5.500;2023-04-01T21:53:49;101150.41;;;6.76;94.13
71043;BME280;58696;52.134;5.500;2023-04-01T22:13:35;101187.25;;;6.73;92.92
71043;BME280;58696;52.134;5.500;2023-04-01T22:16:20;101202.75;;;6.72;93.19
71043;BME280;58696;52.134;5.500;2023-04-01T22:21:50;101211.78;;;6.66;93.50
71043;BME280;58696;52.134;5.500;2023-04-01T22:24:48;101214.50;;;6.65;93.55
71043;BME280;58696;52.134;5.500;2023-04-01T22:30:17;101223.25;;;6.62;92.91
71043;BME280;58696;52.134;5.500;2023-04-01T22:32:47;101224.19;;;6.61;93.12
71043;BME280;58696;52.134;5.500;2023-04-01T22:40:37;101240.63;;;6.58;92.46
71043;BME280;58696;52.134;5.500;2023-04-01T22:43:40;101236.59;;;6.56;92.80
71043;BME280;58696;52.134;5.500;2023-04-01T22:48:40;101254.63;;;6.54;92.31
71043;BME280;58696;52.134;5.500;2023-04-01T22:51:41;101261.63;;;6.52;92.78
71043;BME280;58696;52.134;5.500;2023-04-01T22:54:16;101266.75;;;6.52;93.08
71043;BME280;58696;52.134;5.500;2023-04-01T22:56:57;101265.41;;;6.48;93.67
71043;BME280;58696;52.134;5.500;2023-04-01T23:02:19;101280.84;;;6.47;94.19
71043;BME280;58696;52.134;5.500;2023-04-01T23:04:54;101278.63;;;6.44;94.08
71043;BME280;58696;52.134;5.500;2023-04-01T23:10:24;101290.72;;;6.42;94.18
71043;BME280;58696;52.134;5.500;2023-04-01T23:12:57;101290.72;;;6.42;93.98
71043;BME280;58696;52.134;5.500;2023-04-01T23:15:28;101291.00;;;6.39;93.59
71043;BME280;58696;52.134;5.500;2023-04-01T23:18:03;101303.75;;;6.39;93.47
71043;BME280;58696;52.134;5.500;2023-04-01T23:28:44;101323.81;;;6.33;91.92
71043;BME280;58696;52.134;5.500;2023-04-01T23:33:59;101334.00;;;6.33;92.32
71043;BME280;58696;52.134;5.500;2023-04-01T23:36:27;101338.31;;;6.33;92.61
71043;BME280;58696;52.134;5.500;2023-04-01T23:39:03;101338.47;;;6.31;92.24
71043;BME280;58696;52.134;5.500;2023-04-01T23:41:31;101346.94;;;6.32;92.28
71043;BME280;58696;52.134;5.500;2023-04-01T23:44:05;101347.88;;;6.31;92.21
71043;BME280;58696;52.134;5.500;2023-04-01T23:46:37;101348.94;;;6.28;92.30
71043;BME280;58696;52.134;5.500;2023-04-01T23:49:10;101353.25;;;6.28;92.64
71043;BME280;58696;52.134;5.500;2023-04-01T23:51:49;101352.31;;;6.29;92.91
71043;BME280;58696;52.134;5.500;2023-04-01T23:54:24;101361.88;;;6.27;93.32
71043;BME280;58696;52.134;5.500;2023-04-01T23:56:55;101364.56;;;6.25;93.62
71043;BME280;58696;52.134;5.500;2023-04-01T23:59:33;101364.84;;;6.22;93.85
